createdAt,value
2019-04-22T00:01:40.465Z,15.37
2019-04-22T00:04:23.477Z,11.03
2019-04-22T00:07:09.851Z,12.77
2019-04-22T00:09:51.740Z,12.07
2019-04-22T00:12:34.551Z,17.50
2019-04-22T00:21:34.906Z,20.40
2019-04-22T00:24:06.924Z,19.10
2019-04-22T00:29:37.360Z,19.63
2019-04-22T00:32:00.289Z,18.80
2019-04-22T00:34:35.851Z,17.50
2019-04-22T00:37:08.259Z,20.43
2019-04-22T00:39:46.338Z,20.63
2019-04-22T00:42:24.653Z,22.63
2019-04-22T00:45:03.189Z,21.93
2019-04-22T00:47:32.183Z,19.03
2019-04-22T00:50:25.524Z,24.13
2019-04-22T00:52:38.838Z,22.40
2019-04-22T00:55:23.111Z,21.87
2019-04-22T00:57:56.241Z,23.17
2019-04-22T01:00:31.110Z,23.53
2019-04-22T01:03:16.245Z,21.93
2019-04-22T01:05:40.851Z,20.67
2019-04-22T01:08:23.807Z,20.63
2019-04-22T01:11:00.748Z,19.47
2019-04-22T01:16:23.355Z,18.10
2019-04-22T01:19:00.531Z,19.67
2019-04-22T01:21:44.947Z,20.43
2019-04-22T01:24:04.697Z,19.17
2019-04-22T01:26:41.862Z,18.97
2019-04-22T01:32:34.108Z,19.27
2019-04-22T01:35:14.357Z,19.20
2019-04-22T01:37:54.423Z,19.03
2019-04-22T01:40:39.331Z,20.57
2019-04-22T01:43:18.505Z,19.30
2019-04-22T01:49:27.624Z,19.37
2019-04-22T01:52:05.036Z,17.53
2019-04-22T01:54:40.313Z,20.57
2019-04-22T01:57:11.211Z,18.43
2019-04-22T01:59:41.619Z,22.53
2019-04-22T02:02:23.255Z,21.33
2019-04-22T02:04:59.885Z,22.40
2019-04-22T02:07:37.060Z,18.80
2019-04-22T02:10:11.084Z,22.07
2019-04-22T02:12:45.474Z,20.40
2019-04-22T02:15:18.055Z,23.10
2019-04-22T02:18:01.331Z,22.00
2019-04-22T02:20:32.999Z,22.73
2019-04-22T02:26:02.471Z,20.40
2019-04-22T02:28:42.529Z,23.03
2019-04-22T02:39:07.128Z,25.93
2019-04-22T02:41:30.960Z,26.13
2019-04-22T02:47:49.957Z,25.87
2019-04-22T02:50:19.815Z,26.80
2019-04-22T02:53:03.704Z,26.83
2019-04-22T02:55:40.790Z,27.90
2019-04-22T02:58:19.248Z,31.50
2019-04-22T03:06:49.480Z,34.07
2019-04-22T03:09:55.447Z,31.93
2019-04-22T03:15:06.238Z,31.23
2019-04-22T03:17:29.298Z,29.70
2019-04-22T03:20:06.262Z,32.50
2019-04-22T03:22:34.490Z,37.17
2019-04-22T03:25:47.822Z,33.00
2019-04-22T03:30:47.530Z,32.40
2019-04-22T03:33:11.203Z,35.07
2019-04-22T03:38:37.519Z,32.30
2019-04-22T03:41:14.893Z,34.27
2019-04-22T03:43:33.853Z,42.73
2019-04-22T03:45:52.512Z,34.63
2019-04-22T03:48:36.334Z,39.07
2019-04-22T03:51:16.807Z,33.10
2019-04-22T03:53:48.219Z,32.53
2019-04-22T03:56:57.257Z,32.60
2019-04-22T03:59:09.885Z,37.23
2019-04-22T04:04:18.526Z,38.80
2019-04-22T04:12:01.951Z,46.83
2019-04-22T04:14:44.573Z,39.63
2019-04-22T04:17:26.214Z,37.67
2019-04-22T04:20:06.112Z,38.47
2019-04-22T04:22:32.309Z,39.73
2019-04-22T04:25:08.863Z,41.87
2019-04-22T04:27:42.672Z,32.53
2019-04-22T04:36:23.715Z,31.87
2019-04-22T04:38:51.913Z,34.60
2019-04-22T04:41:34.150Z,30.60
2019-04-22T04:44:10.853Z,25.63
2019-04-22T04:58:34.894Z,30.93
2019-04-22T05:00:57.722Z,27.30
2019-04-22T05:03:20.729Z,25.33
2019-04-22T05:06:01.414Z,23.70
2019-04-22T05:08:52.355Z,24.10
2019-04-22T05:13:49.030Z,25.00
2019-04-22T05:21:24.267Z,21.70
2019-04-22T05:24:15.197Z,26.00
2019-04-22T05:26:46.681Z,24.63
2019-04-22T05:29:11.073Z,24.37
2019-04-22T05:31:55.363Z,22.97
2019-04-22T05:34:25.406Z,20.93
2019-04-22T05:37:04.747Z,22.83
2019-04-22T05:39:28.395Z,23.77
2019-04-22T05:42:11.490Z,22.47
2019-04-22T05:47:22.575Z,18.27
2019-04-22T05:49:59.995Z,19.57
2019-04-22T05:52:35.957Z,20.73
2019-04-22T05:55:08.224Z,22.73
2019-04-22T05:57:38.856Z,18.90
2019-04-22T06:04:11.659Z,18.13
2019-04-22T06:06:37.071Z,18.17
2019-04-22T06:09:21.806Z,22.53
2019-04-22T06:11:48.564Z,16.27
2019-04-22T06:14:25.883Z,16.60
2019-04-22T06:20:59.461Z,15.43
2019-04-22T06:23:34.529Z,12.00
2019-04-22T06:31:16.013Z,9.43
2019-04-22T06:33:54.476Z,6.53
2019-04-22T06:36:34.465Z,7.73
2019-04-22T06:39:01.599Z,6.97
2019-04-22T06:41:42.230Z,7.75
2019-04-22T06:46:52.302Z,9.50
2019-04-22T06:49:31.810Z,6.97
2019-04-22T06:52:01.203Z,7.25
2019-04-22T06:54:32.947Z,7.95
2019-04-22T06:57:05.871Z,6.55
2019-04-22T06:59:52.080Z,5.15
2019-04-22T07:02:32.049Z,5.55
2019-04-22T07:05:03.022Z,4.85
2019-04-22T07:07:38.703Z,5.83
2019-04-22T07:10:23.744Z,5.92
2019-04-22T07:12:48.582Z,7.15
2019-04-22T07:15:35.522Z,4.70
2019-04-22T07:20:42.160Z,4.97
2019-04-22T07:23:13.420Z,4.17
2019-04-22T07:37:19.714Z,5.25
2019-04-22T07:39:45.843Z,5.33
2019-04-22T07:42:24.522Z,6.20
2019-04-22T07:44:54.895Z,5.50
2019-04-22T07:53:45.554Z,8.13
2019-04-22T07:56:23.903Z,6.83
2019-04-22T07:58:58.717Z,9.63
2019-04-22T08:01:30.545Z,8.20
2019-04-22T08:04:17.529Z,8.17
2019-04-22T08:06:52.261Z,7.77
2019-04-22T08:11:59.303Z,9.77
2019-04-22T08:14:36.253Z,11.17
2019-04-22T08:17:33.061Z,8.83
2019-04-22T08:19:43.021Z,10.03
2019-04-22T08:22:14.308Z,8.77
2019-04-22T08:24:58.243Z,11.73
2019-04-22T08:27:31.980Z,8.43
2019-04-22T08:30:20.380Z,8.90
2019-04-22T08:32:42.863Z,10.33
2019-04-22T08:35:20.335Z,9.73
2019-04-22T08:37:51.097Z,7.67
2019-04-22T08:40:30.689Z,7.73
2019-04-22T08:43:05.826Z,12.97
2019-04-22T08:45:38.544Z,8.33
2019-04-22T08:48:15.107Z,9.20
2019-04-22T08:50:44.623Z,9.20
2019-04-22T08:53:28.523Z,7.63
2019-04-22T08:56:12.584Z,8.33
2019-04-22T08:58:32.342Z,8.87
2019-04-22T09:01:13.629Z,7.97
2019-04-22T09:03:47.078Z,8.43
2019-04-22T09:06:29.921Z,9.27
2019-04-22T09:09:02.101Z,8.47
2019-04-22T09:11:44.912Z,8.43
2019-04-22T09:14:14.030Z,8.83
2019-04-22T09:20:20.426Z,7.03
2019-04-22T09:22:56.880Z,8.47
2019-04-22T09:25:34.362Z,7.70
2019-04-22T09:28:07.224Z,9.77
2019-04-22T09:30:46.851Z,9.00
2019-04-22T09:37:07.956Z,8.20
2019-04-22T09:39:34.572Z,8.27
2019-04-22T09:42:10.808Z,8.37
2019-04-22T09:44:47.600Z,8.07
2019-04-22T09:47:19.114Z,7.23
2019-04-22T09:50:01.536Z,6.83
2019-04-22T09:52:29.454Z,7.37
2019-04-22T09:57:38.162Z,8.07
2019-04-22T10:00:13.914Z,6.37
2019-04-22T10:03:00.463Z,8.10
2019-04-22T10:05:36.771Z,9.90
2019-04-22T10:08:18.552Z,9.27
2019-04-22T10:10:51.599Z,7.03
2019-04-22T10:13:27.380Z,8.53
2019-04-22T10:15:57.286Z,7.90
2019-04-22T10:18:33.777Z,8.33
2019-04-22T10:21:08.703Z,9.07
2019-04-22T10:23:48.000Z,9.53
2019-04-22T10:26:21.805Z,9.33
2019-04-22T10:31:37.100Z,8.60
2019-04-22T10:33:53.546Z,8.87
2019-04-22T10:36:17.168Z,11.97
2019-04-22T10:38:52.430Z,10.90
2019-04-22T10:41:28.428Z,11.17
2019-04-22T10:44:03.418Z,13.20
2019-04-22T10:50:16.525Z,8.40
2019-04-22T10:52:50.323Z,11.83
2019-04-22T10:55:25.372Z,11.53
2019-04-22T10:57:59.205Z,10.60
2019-04-22T11:00:33.638Z,8.57
2019-04-22T11:06:58.539Z,11.13
2019-04-22T11:09:29.155Z,13.80
2019-04-22T11:12:09.922Z,11.83
2019-04-22T11:14:41.409Z,12.30
2019-04-22T11:17:13.677Z,12.88
2019-04-22T11:19:47.909Z,10.90
2019-04-22T11:22:27.670Z,11.30
2019-04-22T11:24:59.916Z,10.87
2019-04-22T11:27:34.971Z,9.93
2019-04-22T11:30:09.323Z,10.80
2019-04-22T11:32:44.502Z,13.80
2019-04-22T11:35:19.510Z,11.40
2019-04-22T11:37:53.217Z,10.67
2019-04-22T11:40:34.861Z,10.90
2019-04-22T11:43:03.908Z,10.83
2019-04-22T11:45:39.442Z,9.17
2019-04-22T11:48:13.378Z,11.67
2019-04-22T11:50:48.130Z,11.90
2019-04-22T11:53:22.751Z,11.53
2019-04-22T11:55:56.674Z,11.97
2019-04-22T11:58:30.777Z,11.17
2019-04-22T12:01:06.511Z,10.70
2019-04-22T12:03:41.874Z,15.73
2019-04-22T12:06:15.936Z,11.70
2019-04-22T12:08:50.050Z,10.43
2019-04-22T12:11:24.151Z,9.97
2019-04-22T12:13:57.980Z,9.70
2019-04-22T12:16:31.733Z,11.43
2019-04-22T12:19:07.041Z,10.30
2019-04-22T12:21:41.332Z,12.23
2019-04-22T12:24:15.233Z,11.27
2019-04-22T12:26:50.578Z,8.97
2019-04-22T12:29:24.853Z,9.30
2019-04-22T12:35:30.877Z,10.03
2019-04-22T12:38:08.438Z,12.10
2019-04-22T12:40:47.632Z,9.20
2019-04-22T12:43:18.513Z,8.07
2019-04-22T12:45:52.119Z,12.13
2019-04-22T12:52:03.169Z,9.47
2019-04-22T12:54:37.314Z,10.13
2019-04-22T12:57:12.267Z,8.67
2019-04-22T12:59:46.008Z,10.00
2019-04-22T13:02:20.920Z,12.57
2019-04-22T13:04:56.183Z,11.43
2019-04-22T13:07:31.446Z,10.63
2019-04-22T13:10:10.082Z,10.57
2019-04-22T13:12:44.776Z,9.57
2019-04-22T13:15:20.069Z,9.30
2019-04-22T13:18:03.202Z,10.13
2019-04-22T13:20:30.459Z,11.77
2019-04-22T13:23:04.448Z,9.20
2019-04-22T13:25:38.917Z,9.97
2019-04-22T13:28:13.293Z,8.37
2019-04-22T13:30:48.544Z,8.43
2019-04-22T13:33:23.211Z,10.87
2019-04-22T13:35:57.547Z,9.87
2019-04-22T13:38:31.244Z,9.17
2019-04-22T13:41:20.430Z,9.27
2019-04-22T13:43:42.923Z,8.27
2019-04-22T13:46:16.888Z,11.57
2019-04-22T13:49:17.878Z,7.73
2019-04-22T13:56:59.673Z,11.33
2019-04-22T13:59:25.772Z,9.80
2019-04-22T14:02:10.480Z,7.47
2019-04-22T14:04:46.387Z,8.37
2019-04-22T14:07:22.765Z,8.83
2019-04-22T14:09:58.111Z,8.17
2019-04-22T14:12:32.949Z,7.97
2019-04-22T14:15:07.486Z,6.90
2019-04-22T14:17:41.200Z,8.63
2019-04-22T14:20:15.767Z,8.80
2019-04-22T14:22:50.450Z,8.23
2019-04-22T14:25:24.853Z,9.63
2019-04-22T14:28:04.413Z,11.30
2019-04-22T14:30:34.703Z,9.13
2019-04-22T14:36:45.565Z,7.43
2019-04-22T14:39:19.872Z,8.47
2019-04-22T14:44:12.633Z,10.90
2019-04-22T14:47:26.018Z,9.00
2019-04-22T14:53:44.784Z,8.83
2019-04-22T14:56:02.330Z,9.47
2019-04-22T14:58:37.239Z,8.37
2019-04-22T15:01:11.082Z,7.70
2019-04-22T15:03:47.966Z,7.43
2019-04-22T15:06:20.210Z,8.47
2019-04-22T15:08:55.998Z,7.20
2019-04-22T15:11:42.882Z,7.50
2019-04-22T15:14:05.467Z,9.33
2019-04-22T15:16:57.319Z,8.70
2019-04-22T15:19:33.775Z,12.40
2019-04-22T15:22:08.475Z,7.63
2019-04-22T15:24:42.623Z,8.67
2019-04-22T15:27:16.574Z,9.17
2019-04-22T15:29:51.608Z,9.47
2019-04-22T15:32:25.473Z,9.43
2019-04-22T15:34:59.585Z,10.17
2019-04-22T15:37:34.850Z,8.40
2019-04-22T15:40:10.965Z,8.23
2019-04-22T15:42:45.568Z,14.03
2019-04-22T15:45:22.354Z,8.17
2019-04-22T15:47:56.034Z,7.63
2019-04-22T15:50:30.896Z,8.13
2019-04-22T15:53:04.809Z,11.10
2019-04-22T15:55:38.934Z,14.57
2019-04-22T15:58:12.651Z,7.43
2019-04-22T16:00:57.687Z,8.33
2019-04-22T16:03:22.765Z,6.43
2019-04-22T16:05:57.631Z,5.23
2019-04-22T16:08:34.181Z,7.63
2019-04-22T16:11:06.852Z,5.47
2019-04-22T16:13:42.169Z,7.03
2019-04-22T16:16:16.502Z,6.73
2019-04-22T16:21:56.577Z,5.67
2019-04-22T16:24:34.080Z,6.27
2019-04-22T16:27:09.444Z,6.10
2019-04-22T16:29:43.244Z,3.73
2019-04-22T16:32:17.079Z,5.00
2019-04-22T16:38:28.927Z,3.73
2019-04-22T16:41:03.138Z,4.37
2019-04-22T16:43:38.384Z,4.40
2019-04-22T16:46:13.743Z,6.57
2019-04-22T16:48:47.713Z,8.27
2019-04-22T16:54:59.063Z,5.40
2019-04-22T16:57:33.702Z,3.90
2019-04-22T17:00:11.237Z,5.17
2019-04-22T17:02:56.140Z,3.57
2019-04-22T17:05:49.737Z,3.00
2019-04-22T17:08:24.530Z,5.73
2019-04-22T17:10:59.762Z,4.33
2019-04-22T17:13:34.665Z,4.50
2019-04-22T17:16:09.889Z,4.70
2019-04-22T17:18:43.814Z,7.97
2019-04-22T17:21:17.742Z,4.80
2019-04-22T17:23:51.799Z,3.63
2019-04-22T17:26:26.502Z,4.70
2019-04-22T17:29:04.068Z,5.00
2019-04-22T17:31:36.534Z,6.77
2019-04-22T17:34:11.576Z,6.40
2019-04-22T17:36:46.258Z,4.00
2019-04-22T17:39:33.049Z,4.57
2019-04-22T17:42:18.444Z,5.43
2019-04-22T17:44:57.162Z,5.27
2019-04-22T17:47:23.559Z,7.63
2019-04-22T17:53:57.987Z,6.33
2019-04-22T17:56:32.519Z,7.33
2019-04-22T17:59:04.054Z,5.37
2019-04-22T18:01:38.273Z,6.40
2019-04-22T18:04:00.593Z,7.57
2019-04-22T18:10:37.587Z,6.50
2019-04-22T18:13:23.144Z,8.20
2019-04-22T18:15:48.651Z,11.43
2019-04-22T18:18:25.904Z,7.43
2019-04-22T18:20:50.944Z,8.43
2019-04-22T18:23:20.807Z,9.17
2019-04-22T18:26:05.697Z,9.83
2019-04-22T18:28:50.933Z,9.93
2019-04-22T18:31:15.906Z,8.00
2019-04-22T18:33:50.178Z,7.33
2019-04-22T18:36:30.632Z,7.77
2019-04-22T18:39:11.187Z,8.90
2019-04-22T18:41:41.536Z,9.43
2019-04-22T18:44:21.785Z,11.00
2019-04-22T18:46:54.997Z,12.17
2019-04-22T18:49:30.636Z,9.33
2019-04-22T18:52:16.089Z,10.60
2019-04-22T18:55:09.756Z,10.17
2019-04-22T18:57:59.107Z,11.87
2019-04-22T19:00:23.317Z,12.67
2019-04-22T19:03:06.398Z,10.90
2019-04-22T19:09:51.884Z,14.67
2019-04-22T19:12:36.965Z,8.88
2019-04-22T19:17:35.448Z,11.13
2019-04-22T19:26:30.785Z,10.80
2019-04-22T19:29:00.292Z,11.27
2019-04-22T19:31:37.353Z,11.93
2019-04-22T19:34:10.162Z,10.70
2019-04-22T19:36:46.876Z,10.87
2019-04-22T19:39:18.178Z,11.40
2019-04-22T19:42:08.228Z,11.93
2019-04-22T19:44:36.642Z,15.20
2019-04-22T19:47:27.026Z,14.30
2019-04-22T19:49:54.181Z,17.00
2019-04-22T19:52:26.091Z,15.10
2019-04-22T19:55:03.368Z,12.97
2019-04-22T19:57:37.499Z,18.77
2019-04-22T20:00:19.637Z,14.70
2019-04-22T20:03:16.993Z,15.37
2019-04-22T20:09:03.603Z,13.93
2019-04-22T20:11:35.347Z,19.33
2019-04-22T20:14:06.010Z,15.00
2019-04-22T20:16:38.831Z,15.27
2019-04-22T20:19:24.817Z,12.73
2019-04-22T20:25:40.670Z,16.67
2019-04-22T20:28:19.352Z,14.40
2019-04-22T20:30:50.567Z,16.53
2019-04-22T20:33:31.831Z,18.80
2019-04-22T20:36:08.257Z,18.90
2019-04-22T20:42:42.080Z,15.53
2019-04-22T20:45:07.092Z,14.73
2019-04-22T20:47:32.226Z,17.83
2019-04-22T20:50:15.731Z,15.40
2019-04-22T20:52:55.486Z,17.27
2019-04-22T20:55:16.206Z,17.07
2019-04-22T20:57:57.830Z,18.87
2019-04-22T21:00:25.245Z,17.37
2019-04-22T21:02:59.839Z,17.73
2019-04-22T21:05:38.191Z,18.17
2019-04-22T21:08:25.838Z,16.30
2019-04-22T21:10:49.372Z,17.27
2019-04-22T21:13:23.122Z,15.40
2019-04-22T21:16:08.960Z,18.67
2019-04-22T21:18:36.365Z,19.80
2019-04-22T21:21:22.213Z,19.40
2019-04-22T21:23:47.652Z,19.97
2019-04-22T21:26:29.117Z,19.77
2019-04-22T21:29:03.378Z,17.63
2019-04-22T21:31:43.754Z,20.50
2019-04-22T21:34:10.298Z,19.70
2019-04-22T21:40:28.745Z,19.67
2019-04-22T21:43:08.930Z,21.33
2019-04-22T21:45:35.316Z,21.20
2019-04-22T21:50:58.162Z,20.60
2019-04-22T21:57:16.933Z,20.10
2019-04-22T21:59:40.207Z,20.80
2019-04-22T22:02:17.516Z,21.73
2019-04-22T22:04:47.252Z,23.30
2019-04-22T22:07:13.574Z,20.87
2019-04-22T22:10:01.370Z,22.27
2019-04-22T22:12:39.702Z,21.37
2019-04-22T22:15:16.285Z,21.33
2019-04-22T22:17:42.264Z,21.30
2019-04-22T22:20:14.674Z,19.77
2019-04-22T22:23:01.977Z,18.70
2019-04-22T22:25:33.504Z,23.20
2019-04-22T22:28:23.951Z,20.13
2019-04-22T22:30:57.753Z,20.10
2019-04-22T22:33:24.176Z,24.00
2019-04-22T22:35:57.897Z,21.97
2019-04-22T22:38:29.807Z,20.57
2019-04-22T22:40:48.209Z,24.80
2019-04-22T22:43:31.968Z,22.63
2019-04-22T22:46:11.948Z,20.77
2019-04-22T22:48:58.208Z,22.47
2019-04-22T22:51:39.536Z,23.70
2019-04-22T22:54:03.873Z,24.60
2019-04-22T22:56:46.922Z,22.33
2019-04-22T22:59:18.132Z,21.77
2019-04-22T23:01:50.974Z,22.37
2019-04-22T23:07:06.927Z,22.40
2019-04-22T23:09:38.503Z,22.93
2019-04-22T23:12:24.821Z,22.10
2019-04-22T23:14:52.351Z,20.73
2019-04-22T23:17:10.086Z,23.97
2019-04-22T23:19:44.763Z,24.43
2019-04-22T23:26:11.287Z,22.83
2019-04-22T23:28:43.114Z,26.40
2019-04-22T23:31:30.844Z,23.70
2019-04-22T23:34:11.903Z,21.57
2019-04-22T23:36:54.513Z,20.80
2019-04-22T23:43:21.503Z,21.50
2019-04-22T23:45:56.402Z,21.33
2019-04-22T23:48:25.215Z,25.27
2019-04-22T23:51:07.259Z,22.77
2019-04-22T23:56:15.445Z,20.13
2019-04-22T23:58:55.162Z,24.07
